Wilmington, OH

4:02 AM EDT on May 25, 2017 (GMT -0400)
Truesdell St | | Change Station

Elev 1023 ft 39.44 °N, 83.83 °W | Updated 12 seconds ago

Heavy Rain
Heavy Rain Mist
59.2 °F
Feels Like 59.2 °F
N
1.0
Wind Variable Wind from North

Today
High -- | Low -- °F
--% Chance of Precip.
Yesterday
High -- | Low -- °F
Precip. -- in
Pressure 29.37 in
Visibility 1.2 miles
Clouds Scattered Clouds 600 ft
Mostly Cloudy 1000 ft
Overcast 1600 ft
Dew Point 58 °F
Humidity 98%
Rainfall 0.07 in
Snow Depth Not available.
6:13 AM 8:51 PM
Waning Crescent, 0% visible
METAR KILN 250754Z AUTO 23008KT 1 1/4SM +RA BR SCT006 BKN010 OVC016 14/14 A2937 RMK AO2 RAB30 SLP944 P0014 T01440144
Pressure 29.37 in
Visibility 1.2 miles
Clouds Scattered Clouds 600 ft
Mostly Cloudy 1000 ft
Overcast 1600 ft
Dew Point 58 °F
Humidity 98%
Rainfall 0.07 in
Snow Depth Not available.
6:13 AM 8:51 PM
Waning Crescent, 0% visible
METAR KILN 250754Z AUTO 23008KT 1 1/4SM +RA BR SCT006 BKN010 OVC016 14/14 A2937 RMK AO2 RAB30 SLP944 P0014 T01440144

Get Severe Weather Alerts

Thanks for signing up!

Be on the lookout for a verification email in your inbox.

You'll start receiving the daily forecast at 6 AM.

×

10-Day Weather Forecast

Almanac

Astronomy

May. 25, 2017 Rise Set
Actual Time
Civil Twilight
Nautical Twilight
Astronomical Twilight
Moon
Length of Visible Light
Length of Day
Tomorrow will be .
, % of the Moon is Illuminated

Today's Extremes

State Highs State Lows

Community

WunderPhotos

Category 6

Welcome to Category 6. This is the collective home for Weather Underground's featured writeups by Dr. Jeff Masters (right), Bob Henson (left), Chris Burt, and other regular contributors.

Nearby

Air Quality

  Air Quality AQ Index Pollutant
Not available.

Snow Depth

Station Depth Elevation

Earthquake Activity

City Distance Mag. Time & Date
Minimum magnitude displayed is 2.5.

Coastal Water Temperatures

Place Temperature

Stations

Nearby Weather Stations

Station Location Temp. Windchill Dew Point Humidity Wind Precip. Elev Updated Type
                   

Watches & Warnings

There are currently no watches in effect.